Wetterdaten: aktuell Samstag, 08.08.2020 04:20
Datum Zeit Temp. 2m rel. Feuchte Luftdruck Regen Wind Richtung Richtung Sonne ET UV-Index Solar Taupunkt Ben
08.08.2020 04:20 19,2 C 66 % 1018,2 hPa 0,0 mm 0,0 km/h (0 Bft) O 84 0 min 0,0 mm 0,0 UV-I 0 W/m 12,7 C 0,0 km/h (0 Bft)
08.08.2020 03:20 19,8 C 63 % 1018,0 hPa 0,0 mm 0,0 km/h (0 Bft) O 84 0 min 0,0 mm 0,0 UV-I 0 W/m 12,5 C 0,0 km/h (0 Bft)
08.08.2020 02:25 20,3 C 60 % 1018,2 hPa 0,0 mm 0,0 km/h (0 Bft) W 278 0 min 0,0 mm 0,0 UV-I 0 W/m 12,3 C 0,0 km/h (0 Bft)
08.08.2020 01:30 21,7 C 53 % 1018,0 hPa 0,0 mm 0,0 km/h (0 Bft) W 278 0 min 0,0 mm 0,0 UV-I 0 W/m 11,7 C 0,0 km/h (0 Bft)
08.08.2020 00:35 23,2 C 47 % 1018,1 hPa 0,0 mm 0,0 km/h (0 Bft) W 278 0 min 0,0 mm 0,0 UV-I 0 W/m 11,3 C 0,0 km/h (0 Bft)
07.08.2020 23:40 23,2 C 48 % 1017,9 hPa 0,0 mm 0,0 km/h (0 Bft) O 84 0 min 0,0 mm 0,0 UV-I 0 W/m 11,6 C 0,0 km/h (0 Bft)
07.08.2020 22:45 26,0 C 41 % 1017,7 hPa 0,0 mm 0,0 km/h (0 Bft) O 84 0 min 0,0 mm 0,0 UV-I 0 W/m 11,7 C 0,0 km/h (0 Bft)
07.08.2020 21:50 29,1 C 32 % 1017,5 hPa 0,0 mm 0,0 km/h (0 Bft) W 278 5 min 0,1 mm 0,0 UV-I 0 W/m 10,7 C 0,0 km/h (0 Bft)
07.08.2020 20:55 31,0 C 27 % 1017,2 hPa 0,0 mm 0,0 km/h (0 Bft) W 278 30 min 0,0 mm 0,0 UV-I 14 W/m 9,8 C 0,0 km/h (0 Bft)
07.08.2020 20:00 33,2 C 21 % 1017,0 hPa 0,0 mm 0,0 km/h (0 Bft) W 278 60 min 0,3 mm 0,0 UV-I 143 W/m 7,9 C 0,0 km/h (0 Bft)
07.08.2020 19:05 33,6 C 20 % 1017,2 hPa 0,0 mm 0,0 km/h (0 Bft) W 278 60 min 0,3 mm 0,0 UV-I 309 W/m 7,5 C 0,0 km/h (0 Bft)
07.08.2020 18:10 34,5 C 19 % 1017,3 hPa 0,0 mm 0,7 km/h (0 Bft) W 280 60 min 0,4 mm 0,0 UV-I 495 W/m 7,5 C 4,4 km/h (1 Bft)
07.08.2020 17:15 35,0 C 19 % 1017,6 hPa 0,0 mm 4,3 km/h (1 Bft) S 185 60 min 0,5 mm 1,2 UV-I 666 W/m 7,9 C 13,3 km/h (3 Bft)
07.08.2020 16:20 35,3 C 19 % 1017,8 hPa 0,0 mm 1,1 km/h (1 Bft) SW 230 60 min 0,5 mm 2,0 UV-I 811 W/m 8,1 C 8,9 km/h (2 Bft)
07.08.2020 15:25 34,0 C 23 % 1018,3 hPa 0,0 mm 2,9 km/h (1 Bft) S-SW 204 60 min 0,6 mm 2,9 UV-I 916 W/m 9,9 C 13,3 km/h (3 Bft)
07.08.2020 14:30 34,5 C 23 % 1018,7 hPa 0,0 mm 5,1 km/h (1 Bft) W 274 60 min 0,6 mm 3,6 UV-I 988 W/m 10,3 C 15,5 km/h (3 Bft)
07.08.2020 13:35 33,9 C 21 % 1019,0 hPa 0,0 mm 1,2 km/h (1 Bft) S-SO 164 60 min 0,6 mm 3,7 UV-I 1002 W/m 8,5 C 11,1 km/h (2 Bft)
07.08.2020 12:40 32,1 C 26 % 1019,3 hPa 0,0 mm 3,8 km/h (1 Bft) W-NW 293 60 min 0,5 mm 3,3 UV-I 968 W/m 10,2 C 8,9 km/h (2 Bft)
07.08.2020 11:45 30,1 C 34 % 1019,8 hPa 0,0 mm 2,7 km/h (1 Bft) S-SW 205 60 min 0,4 mm 2,6 UV-I 881 W/m 12,5 C 11,1 km/h (2 Bft)
07.08.2020 10:50 27,5 C 40 % 1019,9 hPa 0,0 mm 3,2 km/h (1 Bft) S 181 60 min 0,3 mm 0,6 UV-I 759 W/m 12,7 C 8,9 km/h (2 Bft)
07.08.2020 09:55 24,9 C 46 % 1020,1 hPa 0,0 mm 4,6 km/h (1 Bft) SW 224 45 min 0,1 mm 0,0 UV-I 600 W/m 12,5 C 13,3 km/h (3 Bft)
07.08.2020 09:00 22,4 C 54 % 1020,3 hPa 0,0 mm 3,1 km/h (1 Bft) O 84 0 min 0,1 mm 0,0 UV-I 68 W/m 12,6 C 8,9 km/h (2 Bft)
07.08.2020 08:05 19,8 C 64 % 1020,1 hPa 0,0 mm 2,2 km/h (1 Bft) O 84 0 min 0,0 mm 0,0 UV-I 42 W/m 12,8 C 8,9 km/h (2 Bft)
07.08.2020 07:10 18,8 C 64 % 1019,9 hPa 0,0 mm 2,8 km/h (1 Bft) O 84 0 min 0,0 mm 0,0 UV-I 27 W/m 11,8 C 6,7 km/h (2 Bft)
07.08.2020 06:15 19,0 C 64 % 1019,6 hPa 0,0 mm 1,5 km/h (1 Bft) O 84 0 min 0,0 mm 0,0 UV-I 6 W/m 12,0 C 6,7 km/h (2 Bft)
07.08.2020 05:20 19,2 C 64 % 1019,4 hPa 0,0 mm 2,1 km/h (1 Bft) O 84 0 min 0,0 mm 0,0 UV-I 0 W/m 12,2 C 4,4 km/h (1 Bft)
07.08.2020 05:00 19,2 C 64 % 1019,1 hPa 0,0 mm 2,5 km/h (1 Bft) O 84 0 min 0,0 mm 0,0 UV-I 0 W/m 12,2 C 6,7 km/h (2 Bft)
_ Min-Zeit 06:40 17:30 19:25 - 11:55 - - - - - - 17:30 11:55
Minimum _ 18,7 C 17 % 1016,9 hPa - 0,0 km/h (0 Bft) - - - - - - 6,4 C 0,0 km/h (0 Bft)
_ Max-Zeit 16:20 04:11 09:00 05:00 12:30 - - 09:15 14:00 13:20 13:50 11:00 09:35
Maximum _ 35,4 C 66 % 1020,3 hPa 0,0 mm 6,1 km/h
S-SO (2 Bft)
- - 5 min 0,6 mm 3,7 UV-I 1008 W/m 13,1 C 15,5 km/h
S-SW (3 Bft)
Durchschnitt _ 26,5 C 42 % 1018,6 hPa #0,0 mm 1,6 km/h (1 Bft) O - #0 min. #0,025 mm 0,0 UV-I 0 W/m 11,0 C 5,1 km/h (1 Bft)



© 1998 - 2020 www.pulheimwetter.de